createdAt,value
2019-03-03T00:01:40.039Z,7.50
2019-03-03T00:04:09.326Z,7.50
2019-03-03T00:06:38.674Z,7.50
2019-03-03T00:09:08.853Z,7.50
2019-03-03T00:11:39.096Z,7.50
2019-03-03T00:14:08.420Z,7.60
2019-03-03T00:16:37.784Z,7.60
2019-03-03T00:19:08.130Z,7.60
2019-03-03T00:21:37.476Z,7.60
2019-03-03T00:24:06.914Z,7.60
2019-03-03T00:26:36.260Z,7.60
2019-03-03T00:29:05.573Z,7.60
2019-03-03T00:31:39.656Z,7.60
2019-03-03T00:34:08.965Z,7.60
2019-03-03T00:36:56.393Z,7.70
2019-03-03T00:39:40.652Z,7.70
2019-03-03T00:42:27.499Z,7.70
2019-03-03T00:45:11.668Z,7.70
2019-03-03T00:47:59.963Z,7.70
2019-03-03T00:50:39.429Z,7.70
2019-03-03T00:53:27.748Z,7.70
2019-03-03T00:56:31.201Z,7.60
2019-03-03T00:59:20.544Z,7.60
2019-03-03T01:02:01.340Z,7.60
2019-03-03T01:04:48.361Z,7.60
2019-03-03T01:07:52.087Z,7.60
2019-03-03T01:10:38.856Z,7.60
2019-03-03T01:13:19.333Z,7.70
2019-03-03T01:16:06.132Z,7.70
2019-03-03T01:18:57.332Z,7.60
2019-03-03T01:21:49.410Z,7.60
2019-03-03T01:24:36.492Z,7.60
2019-03-03T01:27:05.771Z,7.60
2019-03-03T01:29:35.148Z,7.50
2019-03-03T01:32:04.533Z,7.50
2019-03-03T01:34:33.863Z,7.50
2019-03-03T01:37:03.209Z,7.60
2019-03-03T01:39:32.537Z,7.60
2019-03-03T01:42:01.933Z,7.80
2019-03-03T01:44:31.208Z,7.80
2019-03-03T01:47:00.527Z,7.80
2019-03-03T01:49:29.801Z,7.80
2019-03-03T01:51:59.126Z,7.80
2019-03-03T01:54:28.411Z,7.80
2019-03-03T01:56:57.845Z,7.80
2019-03-03T01:59:27.144Z,7.80
2019-03-03T02:01:56.557Z,7.80
2019-03-03T02:04:25.876Z,7.80
2019-03-03T02:06:55.157Z,7.70
2019-03-03T02:09:24.632Z,7.70
2019-03-03T02:11:54.136Z,7.70
2019-03-03T02:14:23.536Z,7.70
2019-03-03T02:16:52.822Z,7.70
2019-03-03T02:19:22.205Z,7.70
2019-03-03T02:21:51.482Z,7.80
2019-03-03T02:24:21.291Z,7.80
2019-03-03T02:26:50.607Z,7.80
2019-03-03T02:29:19.937Z,7.80
2019-03-03T02:31:49.927Z,7.80
2019-03-03T02:34:19.212Z,7.80
2019-03-03T02:36:49.473Z,7.70
2019-03-03T02:39:19.917Z,7.60
2019-03-03T02:41:49.201Z,7.60
2019-03-03T02:44:18.612Z,7.50
2019-03-03T02:46:47.929Z,7.50
2019-03-03T02:49:17.229Z,7.50
2019-03-03T02:51:46.565Z,7.40
2019-03-03T02:54:15.858Z,7.40
2019-03-03T02:56:45.227Z,7.40
2019-03-03T02:59:14.621Z,7.40
2019-03-03T03:01:48.789Z,7.50
2019-03-03T03:04:18.078Z,7.50
2019-03-03T03:06:55.172Z,7.60
2019-03-03T03:09:27.377Z,7.60
2019-03-03T03:12:19.281Z,7.70
2019-03-03T03:15:13.595Z,7.70
2019-03-03T03:17:53.331Z,7.70
2019-03-03T03:20:44.638Z,7.80
2019-03-03T03:23:45.045Z,7.70
2019-03-03T03:26:22.654Z,7.80
2019-03-03T03:29:11.083Z,7.80
2019-03-03T03:31:48.758Z,7.80
2019-03-03T03:34:25.885Z,7.80
2019-03-03T03:37:19.979Z,7.80
2019-03-03T03:40:14.459Z,7.70
2019-03-03T03:43:18.128Z,7.70
2019-03-03T03:45:55.253Z,7.70
2019-03-03T03:48:37.064Z,7.70
2019-03-03T03:51:43.725Z,7.70
2019-03-03T03:54:34.034Z,7.70
2019-03-03T03:57:37.319Z,7.60
2019-03-03T04:00:26.440Z,7.50
2019-03-03T04:03:20.641Z,7.40
2019-03-03T04:05:59.211Z,7.40
2019-03-03T04:08:44.294Z,7.30
2019-03-03T04:11:33.561Z,7.20
2019-03-03T04:14:24.412Z,7.20
2019-03-03T04:17:07.569Z,7.10
2019-03-03T04:19:46.393Z,7.20
2019-03-03T04:22:23.453Z,7.20
2019-03-03T04:25:24.136Z,7.20
2019-03-03T04:28:11.220Z,7.20
2019-03-03T04:31:02.481Z,7.30
2019-03-03T04:33:47.728Z,7.30
2019-03-03T04:36:54.160Z,7.30
2019-03-03T04:39:42.104Z,7.30
2019-03-03T04:42:39.389Z,7.30
2019-03-03T04:45:22.661Z,7.30
2019-03-03T04:48:07.955Z,7.30
2019-03-03T04:51:05.042Z,7.30
2019-03-03T04:53:48.780Z,7.40
2019-03-03T04:56:35.695Z,7.40
2019-03-03T04:59:18.504Z,7.40
2019-03-03T05:02:04.006Z,7.60
2019-03-03T05:04:47.692Z,7.60
2019-03-03T05:07:39.591Z,7.70
2019-03-03T05:10:27.905Z,7.70
2019-03-03T05:13:06.055Z,7.70
2019-03-03T05:16:03.221Z,7.70
2019-03-03T05:18:47.700Z,7.80
2019-03-03T05:21:17.034Z,7.80
2019-03-03T05:23:46.360Z,7.80
2019-03-03T05:26:15.680Z,7.80
2019-03-03T05:28:46.011Z,7.80
2019-03-03T05:31:15.364Z,7.70
2019-03-03T05:33:45.620Z,7.70
2019-03-03T05:36:14.914Z,7.70
2019-03-03T05:38:44.308Z,7.70
2019-03-03T05:41:13.661Z,7.70
2019-03-03T05:43:42.954Z,7.70
2019-03-03T05:46:12.303Z,7.70
2019-03-03T05:48:41.627Z,7.70
2019-03-03T05:51:10.975Z,7.70
2019-03-03T05:53:40.249Z,7.70
2019-03-03T05:56:10.644Z,7.70
2019-03-03T05:58:40.005Z,7.70
2019-03-03T06:01:09.320Z,7.70
2019-03-03T06:03:38.592Z,7.70
2019-03-03T06:06:07.921Z,7.70
2019-03-03T06:08:37.247Z,7.70
2019-03-03T06:11:06.595Z,7.80
2019-03-03T06:13:36.005Z,7.80
2019-03-03T06:16:05.280Z,7.70
2019-03-03T06:18:34.613Z,7.80
2019-03-03T06:21:03.956Z,7.70
2019-03-03T06:23:33.943Z,7.80
2019-03-03T06:26:03.290Z,7.80
2019-03-03T06:28:32.591Z,7.80
2019-03-03T06:31:01.852Z,7.90
2019-03-03T06:33:31.154Z,7.90
2019-03-03T06:36:00.495Z,7.90
2019-03-03T06:38:29.812Z,7.90
2019-03-03T06:40:59.258Z,8.00
2019-03-03T06:43:28.560Z,8.00
2019-03-03T06:45:57.852Z,8.00
2019-03-03T06:48:27.172Z,8.00
2019-03-03T06:50:56.504Z,8.10
2019-03-03T06:53:25.797Z,8.10
2019-03-03T06:55:55.115Z,8.10
2019-03-03T06:58:24.440Z,8.10
2019-03-03T07:00:53.764Z,8.20
2019-03-03T07:03:23.057Z,8.20
2019-03-03T07:05:52.384Z,8.20
2019-03-03T07:08:21.728Z,8.20
2019-03-03T07:10:51.096Z,8.20
2019-03-03T07:13:20.395Z,8.20
2019-03-03T07:15:49.704Z,8.30
2019-03-03T07:18:18.985Z,8.30
2019-03-03T07:20:48.351Z,8.30
2019-03-03T07:23:17.624Z,8.30
2019-03-03T07:25:46.896Z,8.30
2019-03-03T07:28:17.281Z,8.30
2019-03-03T07:30:47.268Z,8.40
2019-03-03T07:33:36.532Z,8.40
2019-03-03T07:36:05.804Z,8.40
2019-03-03T07:38:35.139Z,8.50
2019-03-03T07:41:04.407Z,8.50
2019-03-03T07:43:33.699Z,8.50
2019-03-03T07:46:03.049Z,8.50
2019-03-03T07:48:32.320Z,8.60
2019-03-03T07:51:01.649Z,8.60
2019-03-03T07:53:30.959Z,8.70
2019-03-03T07:56:00.226Z,8.80
2019-03-03T07:58:29.625Z,8.80
2019-03-03T08:00:58.894Z,8.80
2019-03-03T08:03:28.230Z,8.90
2019-03-03T08:05:57.540Z,8.90
2019-03-03T08:08:26.813Z,9.00
2019-03-03T08:10:56.140Z,9.00
2019-03-03T08:13:25.413Z,9.00
2019-03-03T08:15:54.703Z,9.00
2019-03-03T08:18:24.121Z,9.00
2019-03-03T08:20:53.404Z,9.00
2019-03-03T08:23:22.725Z,9.10
2019-03-03T08:25:52.032Z,9.10
2019-03-03T08:28:21.356Z,9.10
2019-03-03T08:30:50.655Z,9.20
2019-03-03T08:33:19.980Z,9.20
2019-03-03T08:35:49.324Z,9.20
2019-03-03T08:38:18.659Z,9.30
2019-03-03T08:40:47.951Z,9.30
2019-03-03T08:43:29.613Z,9.40
2019-03-03T08:46:12.604Z,9.50
2019-03-03T08:49:09.810Z,9.60
2019-03-03T08:52:00.994Z,9.60
2019-03-03T08:55:00.077Z,9.70
2019-03-03T08:57:46.329Z,9.70
2019-03-03T09:00:42.008Z,9.60
2019-03-03T09:03:28.997Z,9.60
2019-03-03T09:06:23.285Z,9.60
2019-03-03T09:09:11.548Z,9.70
2019-03-03T09:12:06.911Z,9.80
2019-03-03T09:15:04.319Z,9.90
2019-03-03T09:17:45.917Z,9.90
2019-03-03T09:20:20.656Z,9.90
2019-03-03T09:23:06.934Z,9.80
2019-03-03T09:25:55.228Z,9.90
2019-03-03T09:28:46.743Z,9.90
2019-03-03T09:31:37.620Z,9.90
2019-03-03T09:34:24.784Z,10.00
2019-03-03T09:37:15.682Z,10.00
2019-03-03T09:40:22.063Z,10.10
2019-03-03T09:43:10.463Z,10.10
2019-03-03T09:45:58.754Z,10.10
2019-03-03T09:48:53.328Z,10.20
2019-03-03T09:51:32.364Z,10.30
2019-03-03T09:54:12.873Z,10.40
2019-03-03T09:57:00.000Z,10.60
2019-03-03T09:59:37.755Z,10.90
2019-03-03T10:02:32.132Z,11.10
2019-03-03T10:05:26.404Z,11.30
2019-03-03T10:08:27.068Z,11.50
2019-03-03T10:11:27.734Z,11.70
2019-03-03T10:14:28.098Z,11.90
2019-03-03T10:17:31.714Z,12.00
2019-03-03T10:20:14.084Z,11.90
2019-03-03T10:23:11.769Z,12.00
2019-03-03T10:26:00.020Z,12.10
2019-03-03T10:28:48.308Z,12.20
2019-03-03T10:31:48.865Z,12.20
2019-03-03T10:34:43.261Z,12.30
2019-03-03T10:37:37.373Z,12.40
2019-03-03T10:40:44.328Z,12.40
2019-03-03T10:43:24.414Z,12.50
2019-03-03T10:46:31.014Z,12.70
2019-03-03T10:49:17.999Z,12.80
2019-03-03T10:52:07.382Z,13.00
2019-03-03T10:54:58.814Z,13.40
2019-03-03T10:57:36.972Z,13.50
2019-03-03T11:00:45.927Z,13.60
2019-03-03T11:03:22.711Z,13.50
2019-03-03T11:06:10.441Z,13.40
2019-03-03T11:09:01.244Z,13.40
2019-03-03T11:11:46.087Z,13.30
2019-03-03T11:14:33.222Z,13.10
2019-03-03T11:17:24.235Z,13.00
2019-03-03T11:20:05.201Z,13.00
2019-03-03T11:23:08.686Z,13.00
2019-03-03T11:25:56.892Z,13.00
2019-03-03T11:28:33.319Z,13.10
2019-03-03T11:31:33.899Z,13.20
2019-03-03T11:34:17.031Z,13.30
2019-03-03T11:37:14.909Z,13.40
2019-03-03T11:40:02.250Z,13.40
2019-03-03T11:42:46.998Z,13.50
2019-03-03T11:45:38.017Z,13.70
2019-03-03T11:48:33.521Z,13.80
2019-03-03T11:51:21.857Z,13.90
2019-03-03T11:54:06.215Z,14.00
2019-03-03T11:56:42.178Z,14.00
2019-03-03T11:59:29.350Z,13.90
2019-03-03T12:02:16.254Z,14.10
2019-03-03T12:05:10.675Z,14.00
2019-03-03T12:08:05.108Z,14.10
2019-03-03T12:10:56.456Z,14.10
2019-03-03T12:13:45.764Z,14.50
2019-03-03T12:16:43.092Z,14.70
2019-03-03T12:19:31.164Z,14.90
2019-03-03T12:22:20.493Z,15.10
2019-03-03T12:25:01.222Z,15.40
2019-03-03T12:27:52.359Z,15.70
2019-03-03T12:30:33.280Z,15.80
2019-03-03T12:33:22.983Z,16.00
2019-03-03T12:36:20.603Z,16.30
2019-03-03T12:38:58.946Z,16.30
2019-03-03T12:41:50.389Z,16.10
2019-03-03T12:44:25.161Z,16.20
2019-03-03T12:47:19.288Z,16.30
2019-03-03T12:50:07.633Z,16.60
2019-03-03T12:53:01.845Z,16.90
2019-03-03T12:55:39.691Z,17.20
2019-03-03T12:58:26.512Z,17.30
2019-03-03T13:01:17.756Z,16.90
2019-03-03T13:03:54.541Z,16.40
2019-03-03T13:06:31.404Z,16.10
2019-03-03T13:09:10.691Z,16.00
2019-03-03T13:12:02.022Z,15.80
2019-03-03T13:14:53.247Z,15.70
2019-03-03T13:17:48.201Z,15.50
2019-03-03T13:20:22.192Z,15.40
2019-03-03T13:23:13.240Z,15.20
2019-03-03T13:25:55.804Z,15.20
2019-03-03T13:28:42.721Z,15.20
2019-03-03T13:31:27.728Z,15.30
2019-03-03T13:34:06.931Z,15.30
2019-03-03T13:36:54.013Z,15.50
2019-03-03T13:39:42.352Z,15.90
2019-03-03T13:42:29.709Z,16.10
2019-03-03T13:44:59.032Z,16.20
2019-03-03T13:47:28.344Z,16.10
2019-03-03T13:49:57.693Z,16.40
2019-03-03T13:52:27.074Z,16.60
2019-03-03T13:54:56.412Z,16.50
2019-03-03T13:57:25.755Z,16.30
2019-03-03T13:59:55.140Z,16.40
2019-03-03T14:02:24.884Z,16.30
2019-03-03T14:04:55.004Z,16.10
2019-03-03T14:07:24.688Z,16.00
2019-03-03T14:09:54.233Z,15.90
2019-03-03T14:12:23.524Z,15.90
2019-03-03T14:14:52.864Z,15.80
2019-03-03T14:17:22.151Z,15.60
2019-03-03T14:19:51.604Z,15.50
2019-03-03T14:22:20.908Z,15.30
2019-03-03T14:24:50.504Z,15.20
2019-03-03T14:27:19.916Z,15.20
2019-03-03T14:29:49.247Z,15.20
2019-03-03T14:32:18.728Z,15.40
2019-03-03T14:34:48.040Z,16.20
2019-03-03T14:37:17.402Z,16.50
2019-03-03T14:39:46.864Z,17.00
2019-03-03T14:42:16.326Z,17.70
2019-03-03T14:44:45.648Z,18.40
2019-03-03T14:47:14.960Z,18.80
2019-03-03T14:49:44.418Z,19.10
2019-03-03T14:52:13.752Z,19.40
2019-03-03T14:54:43.081Z,19.70
2019-03-03T14:57:12.468Z,19.90
2019-03-03T14:59:41.988Z,20.20
2019-03-03T15:02:11.405Z,20.60
2019-03-03T15:04:40.702Z,20.90
2019-03-03T15:07:10.194Z,21.10
2019-03-03T15:09:39.509Z,21.00
2019-03-03T15:12:08.866Z,20.70
2019-03-03T15:14:38.231Z,20.20
2019-03-03T15:17:07.585Z,19.60
2019-03-03T15:19:36.923Z,19.30
2019-03-03T15:22:06.354Z,18.80
2019-03-03T15:24:35.641Z,18.30
2019-03-03T15:27:05.136Z,17.80
2019-03-03T15:29:34.448Z,17.30
2019-03-03T15:32:03.955Z,16.90
2019-03-03T15:34:33.380Z,16.50
2019-03-03T15:37:03.901Z,16.20
2019-03-03T15:39:33.292Z,15.90
2019-03-03T15:42:02.673Z,15.70
2019-03-03T15:44:32.028Z,15.50
2019-03-03T15:47:01.440Z,15.40
2019-03-03T15:49:31.756Z,15.20
2019-03-03T15:52:01.104Z,15.00
2019-03-03T15:54:30.468Z,14.90
2019-03-03T15:56:59.804Z,14.80
2019-03-03T15:59:29.192Z,14.60
2019-03-03T16:01:58.608Z,14.40
2019-03-03T16:04:28.002Z,14.30
2019-03-03T16:06:57.402Z,14.20
2019-03-03T16:09:26.894Z,14.20
2019-03-03T16:11:56.216Z,14.00
2019-03-03T16:14:25.665Z,14.00
2019-03-03T16:16:55.001Z,14.00
2019-03-03T16:19:24.415Z,13.90
2019-03-03T16:21:53.847Z,13.80
2019-03-03T16:24:23.221Z,13.70
2019-03-03T16:26:52.687Z,13.60
2019-03-03T16:29:22.018Z,13.50
2019-03-03T16:31:51.392Z,13.40
2019-03-03T16:34:20.792Z,13.40
2019-03-03T16:36:50.123Z,13.30
2019-03-03T16:39:19.586Z,13.10
2019-03-03T16:41:49.004Z,13.10
2019-03-03T16:44:18.400Z,13.00
2019-03-03T16:46:47.729Z,12.80
2019-03-03T16:49:17.064Z,12.80
2019-03-03T16:51:46.424Z,12.70
2019-03-03T16:54:15.770Z,12.60
2019-03-03T16:56:45.148Z,12.50
2019-03-03T16:59:14.555Z,12.50
2019-03-03T17:01:43.980Z,12.40
2019-03-03T17:04:13.368Z,12.30
2019-03-03T17:06:42.808Z,12.30
2019-03-03T17:09:12.851Z,12.30
2019-03-03T17:11:42.292Z,12.20
2019-03-03T17:14:11.661Z,12.20
2019-03-03T17:16:41.019Z,12.10
2019-03-03T17:19:10.362Z,12.10
2019-03-03T17:21:39.728Z,12.00
2019-03-03T17:24:09.165Z,11.90
2019-03-03T17:26:39.492Z,11.90
2019-03-03T17:29:08.841Z,11.80
2019-03-03T17:31:38.194Z,11.70
2019-03-03T17:34:13.069Z,11.60
2019-03-03T17:36:38.645Z,11.50
2019-03-03T17:39:08.683Z,11.50
2019-03-03T17:41:38.056Z,11.40
2019-03-03T17:44:07.592Z,11.30
2019-03-03T17:46:36.880Z,11.20
2019-03-03T17:49:06.172Z,11.20
2019-03-03T17:51:35.488Z,11.20
2019-03-03T17:54:04.812Z,11.10
2019-03-03T17:56:34.209Z,11.10
2019-03-03T17:59:03.572Z,11.00
2019-03-03T18:01:32.945Z,11.00
2019-03-03T18:04:02.310Z,10.90
2019-03-03T18:06:38.547Z,10.90
2019-03-03T18:09:02.841Z,10.80
2019-03-03T18:11:32.146Z,10.70
2019-03-03T18:14:01.469Z,10.70
2019-03-03T18:16:31.638Z,10.80
2019-03-03T18:19:01.026Z,10.70
2019-03-03T18:21:30.369Z,10.70
2019-03-03T18:23:59.656Z,10.60
2019-03-03T18:26:29.005Z,10.60
2019-03-03T18:28:58.361Z,10.50
2019-03-03T18:31:27.671Z,10.60
2019-03-03T18:33:57.017Z,10.50
2019-03-03T18:36:26.360Z,10.50
2019-03-03T18:38:55.664Z,10.40
2019-03-03T18:41:25.008Z,10.30
2019-03-03T18:43:54.370Z,10.30
2019-03-03T18:46:23.807Z,10.30
2019-03-03T18:48:53.424Z,10.40
2019-03-03T18:51:22.804Z,10.40
2019-03-03T18:53:52.223Z,10.40
2019-03-03T18:56:21.584Z,10.20
2019-03-03T18:58:50.932Z,10.10
2019-03-03T19:01:20.704Z,10.10
2019-03-03T19:03:50.186Z,10.00
2019-03-03T19:06:19.595Z,10.00
2019-03-03T19:08:49.100Z,9.90
2019-03-03T19:11:18.634Z,9.90
2019-03-03T19:13:48.120Z,9.70
2019-03-03T19:16:17.536Z,9.70
2019-03-03T19:18:46.982Z,9.60
2019-03-03T19:21:16.373Z,9.50
2019-03-03T19:23:46.841Z,9.50
2019-03-03T19:26:16.312Z,9.50
2019-03-03T19:28:45.768Z,9.40
2019-03-03T19:31:15.221Z,9.40
2019-03-03T19:33:50.614Z,9.30
2019-03-03T19:36:19.973Z,9.20
2019-03-03T19:38:49.405Z,9.20
2019-03-03T19:41:18.814Z,9.20
2019-03-03T19:43:48.194Z,9.30
2019-03-03T19:46:17.630Z,9.30
2019-03-03T19:48:47.007Z,9.30
2019-03-03T19:51:16.386Z,9.30
2019-03-03T19:53:45.814Z,9.10
2019-03-03T19:56:15.233Z,9.00
2019-03-03T19:58:44.682Z,9.00
2019-03-03T20:01:14.089Z,9.00
2019-03-03T20:03:43.524Z,9.00
2019-03-03T20:06:12.946Z,9.10
2019-03-03T20:08:42.328Z,9.20
2019-03-03T20:11:11.736Z,9.20
2019-03-03T20:13:41.129Z,9.10
2019-03-03T20:16:10.614Z,8.90
2019-03-03T20:18:41.340Z,8.80
2019-03-03T20:21:11.152Z,8.80
2019-03-03T20:23:40.580Z,8.80
2019-03-03T20:26:09.945Z,8.80
2019-03-03T20:28:39.431Z,8.80
2019-03-03T20:31:08.920Z,8.80
2019-03-03T20:33:38.332Z,8.80
2019-03-03T20:36:07.815Z,8.80
2019-03-03T20:38:37.340Z,8.70
2019-03-03T20:41:06.684Z,8.70
2019-03-03T20:43:36.120Z,8.60
2019-03-03T20:46:05.489Z,8.60
2019-03-03T20:48:34.826Z,8.60
2019-03-03T20:51:04.568Z,8.40
2019-03-03T20:53:33.970Z,8.30
2019-03-03T20:56:03.537Z,8.40
2019-03-03T20:58:33.005Z,8.40
2019-03-03T21:01:02.459Z,8.30
2019-03-03T21:03:31.830Z,8.30
2019-03-03T21:06:02.131Z,8.20
2019-03-03T21:08:33.302Z,8.20
2019-03-03T21:11:03.128Z,8.10
2019-03-03T21:13:32.639Z,8.10
2019-03-03T21:16:02.028Z,8.20
2019-03-03T21:18:31.549Z,8.20
2019-03-03T21:21:00.961Z,8.20
2019-03-03T21:23:30.355Z,8.20
2019-03-03T21:25:59.894Z,8.20
2019-03-03T21:28:29.216Z,8.20
2019-03-03T21:30:58.583Z,8.20
2019-03-03T21:33:27.872Z,8.20
2019-03-03T21:35:57.271Z,8.10
2019-03-03T21:38:26.603Z,8.00
2019-03-03T21:40:56.053Z,8.00
2019-03-03T21:43:25.621Z,7.90
2019-03-03T21:45:55.066Z,8.00
2019-03-03T21:48:25.044Z,7.90
2019-03-03T21:50:54.484Z,7.90
2019-03-03T21:53:23.810Z,7.90
2019-03-03T21:55:53.127Z,7.80
2019-03-03T21:58:22.500Z,7.80
2019-03-03T22:00:51.817Z,7.90
2019-03-03T22:03:21.144Z,7.80
2019-03-03T22:05:50.485Z,7.80
2019-03-03T22:08:19.816Z,7.80
2019-03-03T22:10:49.084Z,7.90
2019-03-03T22:13:18.412Z,7.90
2019-03-03T22:15:47.796Z,8.00
2019-03-03T22:18:17.115Z,8.00
2019-03-03T22:20:46.404Z,8.00
2019-03-03T22:23:15.740Z,8.20
2019-03-03T22:25:45.132Z,8.20
2019-03-03T22:28:14.476Z,8.20
2019-03-03T22:30:43.832Z,8.20
2019-03-03T22:33:13.101Z,8.20
2019-03-03T22:35:42.412Z,8.20
2019-03-03T22:38:11.712Z,8.30
2019-03-03T22:40:41.048Z,8.30
2019-03-03T22:43:10.319Z,8.40
2019-03-03T22:45:39.572Z,8.50
2019-03-03T22:48:08.880Z,8.50
2019-03-03T22:50:38.236Z,8.60
2019-03-03T22:53:07.504Z,8.70
2019-03-03T22:55:40.233Z,8.60
2019-03-03T22:58:09.378Z,8.70
2019-03-03T23:00:51.697Z,8.70
2019-03-03T23:03:27.813Z,8.70
2019-03-03T23:06:31.889Z,8.60
2019-03-03T23:09:30.752Z,8.60
2019-03-03T23:12:15.316Z,8.50
2019-03-03T23:15:21.912Z,8.40
2019-03-03T23:18:31.307Z,8.30
2019-03-03T23:21:25.409Z,8.20
2019-03-03T23:24:26.901Z,8.10
2019-03-03T23:26:56.203Z,8.10
2019-03-03T23:29:25.510Z,8.10
2019-03-03T23:31:54.912Z,8.10
2019-03-03T23:34:24.186Z,8.10
2019-03-03T23:36:53.556Z,8.10
2019-03-03T23:39:22.840Z,8.10
2019-03-03T23:41:52.168Z,8.20
2019-03-03T23:44:21.494Z,8.30
2019-03-03T23:46:50.820Z,8.20
2019-03-03T23:49:20.096Z,8.30
2019-03-03T23:51:49.364Z,8.40
2019-03-03T23:54:18.684Z,8.50
2019-03-03T23:56:48.013Z,8.40
2019-03-03T23:59:17.280Z,8.40
